createdAt,value
2023-04-15T00:00:25.825Z,10.60
2023-04-15T00:05:51.140Z,9.90
2023-04-15T00:11:13.066Z,9.10
2023-04-15T00:16:34.863Z,8.90
2023-04-15T00:21:57.425Z,7.60
2023-04-15T00:27:19.859Z,6.20
2023-04-15T00:32:42.552Z,6.10
2023-04-15T00:38:04.999Z,8.40
2023-04-15T00:43:27.951Z,7.30
2023-04-15T00:48:50.689Z,7.10
2023-04-15T00:54:13.227Z,9.20
2023-04-15T00:59:36.353Z,6.20
2023-04-15T01:04:58.278Z,6.40
2023-04-15T01:10:20.231Z,20.00
2023-04-15T01:15:42.866Z,32.90
2023-04-15T01:21:06.012Z,19.60
2023-04-15T01:26:28.405Z,10.30
2023-04-15T01:31:55.172Z,9.60
2023-04-15T01:37:17.280Z,13.20
2023-04-15T01:42:39.007Z,13.40
2023-04-15T01:48:01.081Z,13.40
2023-04-15T01:53:22.580Z,15.30
2023-04-15T01:58:47.272Z,16.30
2023-04-15T02:04:16.595Z,13.40
2023-04-15T02:09:38.917Z,8.80
2023-04-15T02:15:02.933Z,7.50
2023-04-15T02:20:24.554Z,5.10
2023-04-15T02:25:53.598Z,4.40
2023-04-15T02:31:16.069Z,3.40
2023-04-15T02:36:37.878Z,3.10
2023-04-15T02:42:01.695Z,3.10
2023-04-15T02:47:24.393Z,3.00
2023-04-15T02:52:49.289Z,3.20
2023-04-15T02:58:11.117Z,4.40
2023-04-15T03:03:33.061Z,5.20
2023-04-15T03:08:55.171Z,4.90
2023-04-15T03:14:17.901Z,5.00
2023-04-15T03:19:41.737Z,5.10
2023-04-15T03:25:04.868Z,5.30
2023-04-15T03:30:27.772Z,6.10
2023-04-15T03:35:51.841Z,5.50
2023-04-15T03:41:13.568Z,5.50
2023-04-15T03:46:35.506Z,5.60
2023-04-15T03:51:57.936Z,6.60
2023-04-15T03:57:19.762Z,6.00
2023-04-15T04:02:44.105Z,6.30
2023-04-15T04:08:06.634Z,5.60
2023-04-15T04:13:28.457Z,5.60
2023-04-15T04:18:53.297Z,6.80
2023-04-15T04:24:15.127Z,6.50
2023-04-15T04:29:37.145Z,6.80
2023-04-15T04:34:58.985Z,6.90
2023-04-15T04:40:23.936Z,8.50
2023-04-15T04:45:45.868Z,11.30
2023-04-15T04:51:09.215Z,9.10
2023-04-15T04:56:33.521Z,8.60
2023-04-15T05:01:55.680Z,13.80
2023-04-15T05:07:17.782Z,9.50
2023-04-15T05:12:39.724Z,8.90
2023-04-15T05:18:01.714Z,9.60
2023-04-15T05:23:23.775Z,8.50
2023-04-15T05:28:45.603Z,9.10
2023-04-15T05:34:08.448Z,9.50
2023-04-15T05:39:31.172Z,9.70
2023-04-15T05:44:53.101Z,10.80
2023-04-15T05:50:15.026Z,10.10
2023-04-15T05:55:37.158Z,8.90
2023-04-15T06:00:59.087Z,9.00
2023-04-15T06:06:21.117Z,11.10
2023-04-15T06:11:42.947Z,10.30
2023-04-15T06:17:04.778Z,10.40
2023-04-15T06:22:26.607Z,10.80
2023-04-15T06:27:48.633Z,10.90
2023-04-15T06:33:10.973Z,7.70
2023-04-15T06:38:32.994Z,7.50
2023-04-15T06:43:55.725Z,6.50
2023-04-15T06:49:19.062Z,6.50
2023-04-15T06:54:41.094Z,5.80
2023-04-15T07:00:05.935Z,5.90
2023-04-15T07:05:28.051Z,5.00
2023-04-15T07:10:49.685Z,4.00
2023-04-15T07:16:11.688Z,5.30
2023-04-15T07:21:33.717Z,4.40
2023-04-15T07:27:00.838Z,4.40
2023-04-15T07:32:23.027Z,4.30
2023-04-15T07:37:44.708Z,4.40
2023-04-15T07:43:06.986Z,4.60
2023-04-15T07:48:28.415Z,4.40
2023-04-15T07:53:50.850Z,4.40
2023-04-15T07:59:13.270Z,4.30
2023-04-15T08:04:35.424Z,3.60
2023-04-15T08:09:57.543Z,4.20
2023-04-15T08:15:22.426Z,4.40
2023-04-15T08:20:44.402Z,4.60
2023-04-15T08:26:06.535Z,6.00
2023-04-15T08:31:29.975Z,5.50
2023-04-15T08:36:51.701Z,4.80
2023-04-15T08:42:17.741Z,5.00
2023-04-15T08:47:40.961Z,5.20
2023-04-15T08:53:03.003Z,9.00
2023-04-15T08:58:25.439Z,4.90
2023-04-15T09:03:49.398Z,5.30
2023-04-15T09:09:13.408Z,6.10
2023-04-15T09:14:35.236Z,6.10
2023-04-15T09:20:10.964Z,6.20
2023-04-15T09:25:34.934Z,2.30
2023-04-15T09:31:01.361Z,1.90
2023-04-15T09:36:23.420Z,2.70
2023-04-15T09:41:45.454Z,2.40
2023-04-15T09:47:07.586Z,4.00
2023-04-15T09:52:30.315Z,4.40
2023-04-15T09:57:52.453Z,2.60
2023-04-15T10:03:16.572Z,3.20
2023-04-15T10:08:38.811Z,4.30
2023-04-15T10:14:01.165Z,3.10
2023-04-15T10:19:26.888Z,2.40
2023-04-15T10:24:49.324Z,1.90
2023-04-15T10:30:11.951Z,1.90
2023-04-15T10:35:34.696Z,2.40
2023-04-15T10:41:17.757Z,2.30
2023-04-15T10:46:44.741Z,1.70
2023-04-15T10:52:08.480Z,2.10
2023-04-15T10:57:39.531Z,7.60
2023-04-15T11:03:08.882Z,6.80
2023-04-15T11:08:54.647Z,3.30
2023-04-15T11:14:16.524Z,3.40
2023-04-15T11:19:39.557Z,2.50
2023-04-15T11:25:02.855Z,2.00
2023-04-15T11:30:27.097Z,2.60
2023-04-15T11:35:49.258Z,4.70
2023-04-15T11:41:11.588Z,5.00
2023-04-15T11:46:33.322Z,3.70
2023-04-15T11:51:55.351Z,3.00
2023-04-15T11:57:17.382Z,12.00
2023-04-15T12:02:39.870Z,4.40
2023-04-15T12:08:02.041Z,4.90
2023-04-15T12:13:24.169Z,3.70
2023-04-15T12:18:47.362Z,3.80
2023-04-15T12:24:10.336Z,5.60
2023-04-15T12:29:32.894Z,3.70
2023-04-15T12:34:54.799Z,3.10
2023-04-15T12:40:16.731Z,3.10
2023-04-15T12:45:38.713Z,2.80
2023-04-15T12:51:04.469Z,2.90
2023-04-15T12:56:27.839Z,3.10
2023-04-15T13:01:50.460Z,3.50
2023-04-15T13:07:14.210Z,3.80
2023-04-15T13:12:36.921Z,3.10
2023-04-15T13:17:58.895Z,3.60
2023-04-15T13:23:20.998Z,4.50
2023-04-15T13:28:42.873Z,4.30
2023-04-15T13:34:04.784Z,4.00
2023-04-15T13:39:27.486Z,4.50
2023-04-15T13:44:51.506Z,4.60
2023-04-15T13:50:13.453Z,4.80
2023-04-15T13:55:36.485Z,6.30
2023-04-15T14:00:58.101Z,9.90
2023-04-15T14:06:20.718Z,8.20
2023-04-15T14:11:43.111Z,8.30
2023-04-15T14:17:07.450Z,5.40
2023-04-15T14:22:29.287Z,4.10
2023-04-15T14:27:51.119Z,10.90
2023-04-15T14:33:13.335Z,7.20
2023-04-15T14:38:38.800Z,4.70
2023-04-15T14:44:01.411Z,4.90
2023-04-15T14:49:24.483Z,4.90
2023-04-15T14:54:46.407Z,8.00
2023-04-15T15:00:10.595Z,9.30
2023-04-15T15:05:32.542Z,8.50
2023-04-15T15:10:54.771Z,11.30
2023-04-15T15:16:16.651Z,12.90
2023-04-15T15:21:38.790Z,9.40
2023-04-15T15:27:00.659Z,21.50
2023-04-15T15:32:23.609Z,21.70
2023-04-15T15:37:46.340Z,17.90
2023-04-15T15:43:08.375Z,9.30
2023-04-15T15:48:30.585Z,7.50
2023-04-15T15:53:52.417Z,16.40
2023-04-15T15:59:14.047Z,8.70
2023-04-15T16:04:36.101Z,7.70
2023-04-15T16:09:57.844Z,10.00
2023-04-15T16:15:19.729Z,7.40
2023-04-15T16:20:41.959Z,18.70
2023-04-15T16:26:04.690Z,6.70
2023-04-15T16:31:26.648Z,7.00
2023-04-15T16:36:48.817Z,12.10
2023-04-15T16:42:10.800Z,11.60
2023-04-15T16:47:33.991Z,9.90
2023-04-15T16:52:56.257Z,9.00
2023-04-15T16:58:17.870Z,9.50
2023-04-15T17:03:40.390Z,13.70
2023-04-15T17:09:02.806Z,10.80
2023-04-15T17:14:24.829Z,11.00
2023-04-15T17:19:48.912Z,10.40
2023-04-15T17:25:11.129Z,9.70
2023-04-15T17:30:33.560Z,10.60
2023-04-15T17:35:55.689Z,14.30
2023-04-15T17:41:17.692Z,13.60
2023-04-15T17:46:39.615Z,15.60
2023-04-15T17:52:01.885Z,11.60
2023-04-15T17:57:25.318Z,11.40
2023-04-15T18:02:48.900Z,7.90
2023-04-15T18:08:11.288Z,9.10
2023-04-15T18:13:33.110Z,10.60
2023-04-15T18:18:54.739Z,11.30
2023-04-15T18:24:16.867Z,15.40
2023-04-15T18:29:43.162Z,11.20
2023-04-15T18:35:06.255Z,12.60
2023-04-15T18:40:28.982Z,12.10
2023-04-15T18:45:54.758Z,11.90
2023-04-15T18:51:16.959Z,11.90
2023-04-15T18:56:39.909Z,14.00
2023-04-15T19:02:06.606Z,9.80
2023-04-15T19:07:30.578Z,13.60
2023-04-15T19:12:54.126Z,12.20
2023-04-15T19:18:16.841Z,14.60
2023-04-15T19:23:39.276Z,15.20
2023-04-15T19:29:01.355Z,10.70
2023-04-15T19:34:25.072Z,13.20
2023-04-15T19:39:47.171Z,17.80
2023-04-15T19:45:09.821Z,20.10
2023-04-15T19:50:32.638Z,21.70
2023-04-15T19:55:54.488Z,19.70
2023-04-15T20:01:16.519Z,32.90
2023-04-15T20:06:38.530Z,24.90
2023-04-15T20:12:48.155Z,18.70
2023-04-15T20:17:44.369Z,21.70
2023-04-15T20:23:06.244Z,18.90
2023-04-15T20:28:28.443Z,17.10
2023-04-15T20:33:50.238Z,11.70
2023-04-15T20:39:12.074Z,14.50
2023-04-15T20:44:34.704Z,15.80
2023-04-15T20:49:56.648Z,17.30
2023-04-15T20:55:18.876Z,22.30
2023-04-15T21:00:40.481Z,20.80
2023-04-15T21:06:02.432Z,15.90
2023-04-15T21:11:42.978Z,13.30
2023-04-15T21:17:10.595Z,13.50
2023-04-15T21:22:33.002Z,14.10
2023-04-15T21:27:54.928Z,20.00
2023-04-15T21:33:20.369Z,17.50
2023-04-15T21:38:42.414Z,20.70
2023-04-15T21:44:04.461Z,21.70
2023-04-15T21:49:26.254Z,20.20
2023-04-15T21:54:48.091Z,15.80
2023-04-15T22:00:11.016Z,13.80
2023-04-15T22:05:32.550Z,13.90
2023-04-15T22:10:54.972Z,14.90
2023-04-15T22:16:16.975Z,22.10
2023-04-15T22:21:39.248Z,15.90
2023-04-15T22:27:02.369Z,19.20
2023-04-15T22:32:24.522Z,20.10
2023-04-15T22:37:46.337Z,25.50
2023-04-15T22:43:08.459Z,31.20
2023-04-15T22:48:30.583Z,28.80
2023-04-15T22:53:52.396Z,30.40
2023-04-15T22:59:14.572Z,32.00
2023-04-15T23:04:36.592Z,37.20
2023-04-15T23:10:00.526Z,43.40
2023-04-15T23:15:22.643Z,30.70
2023-04-15T23:20:46.179Z,30.50
2023-04-15T23:26:09.410Z,33.10
2023-04-15T23:31:32.187Z,28.50
2023-04-15T23:36:54.179Z,26.20
2023-04-15T23:42:16.088Z,33.70
2023-04-15T23:47:40.253Z,34.80
2023-04-15T23:53:02.220Z,41.20
2023-04-15T23:58:24.354Z,28.50
